createdAt,value
2023-03-24T00:02:03.229Z,12.60
2023-03-24T00:04:31.903Z,12.70
2023-03-24T00:07:01.884Z,12.70
2023-03-24T00:09:37.764Z,12.60
2023-03-24T00:15:31.877Z,12.60
2023-03-24T00:18:01.797Z,12.70
2023-03-24T00:20:30.035Z,12.70
2023-03-24T00:22:58.939Z,12.60
2023-03-24T00:25:36.223Z,12.70
2023-03-24T00:28:05.992Z,12.70
2023-03-24T00:30:41.501Z,12.60
2023-03-24T00:33:18.950Z,12.60
2023-03-24T00:35:48.513Z,12.60
2023-03-24T00:38:16.556Z,12.60
2023-03-24T00:40:46.775Z,12.70
2023-03-24T00:43:14.913Z,12.70
2023-03-24T00:45:46.214Z,12.60
2023-03-24T00:48:17.778Z,12.60
2023-03-24T00:50:46.847Z,12.60
2023-03-24T00:53:16.071Z,12.60
2023-03-24T00:55:46.057Z,12.50
2023-03-24T00:58:17.965Z,12.50
2023-03-24T01:00:46.728Z,12.50
2023-03-24T01:03:22.118Z,12.50
2023-03-24T01:05:50.713Z,12.50
2023-03-24T01:08:20.678Z,12.50
2023-03-24T01:10:53.268Z,12.50
2023-03-24T01:13:22.500Z,12.60
2023-03-24T01:15:58.048Z,12.60
2023-03-24T01:18:28.225Z,12.50
2023-03-24T01:20:58.352Z,12.50
2023-03-24T01:23:31.092Z,12.60
2023-03-24T01:25:59.201Z,12.60
2023-03-24T01:28:32.805Z,12.60
2023-03-24T01:31:46.438Z,12.60
2023-03-24T01:35:10.303Z,12.60
2023-03-24T01:37:43.128Z,12.60
2023-03-24T01:40:45.429Z,12.60
2023-03-24T01:43:27.071Z,12.60
2023-03-24T01:46:20.265Z,12.60
2023-03-24T01:49:01.591Z,12.60
2023-03-24T01:51:51.681Z,12.60
2023-03-24T01:55:17.715Z,12.60
2023-03-24T01:57:53.313Z,12.50
2023-03-24T02:00:33.201Z,12.50
2023-03-24T02:03:48.035Z,12.50
2023-03-24T02:06:29.416Z,12.40
2023-03-24T02:09:32.433Z,12.50
2023-03-24T02:12:18.272Z,12.50
2023-03-24T02:14:52.219Z,12.40
2023-03-24T02:18:03.707Z,12.50
2023-03-24T02:21:13.560Z,12.50
2023-03-24T02:24:34.303Z,12.50
2023-03-24T02:27:11.339Z,12.50
2023-03-24T02:30:15.414Z,12.50
2023-03-24T02:33:22.972Z,12.50
2023-03-24T02:36:11.560Z,12.50
2023-03-24T02:39:23.519Z,12.40
2023-03-24T02:42:40.211Z,12.50
2023-03-24T02:45:21.848Z,12.50
2023-03-24T02:48:03.728Z,12.50
2023-03-24T02:50:37.860Z,12.50
2023-03-24T02:53:19.432Z,12.50
2023-03-24T02:56:13.751Z,12.50
2023-03-24T02:58:48.218Z,12.50
2023-03-24T03:01:31.759Z,12.50
2023-03-24T03:04:13.800Z,12.50
2023-03-24T03:06:48.229Z,12.50
2023-03-24T03:09:19.136Z,12.50
2023-03-24T03:11:52.907Z,12.50
2023-03-24T03:14:46.585Z,12.50
2023-03-24T03:17:21.542Z,12.40
2023-03-24T03:20:37.398Z,12.40
2023-03-24T03:23:10.478Z,12.40
2023-03-24T03:25:42.424Z,12.30
2023-03-24T03:28:18.087Z,12.30
2023-03-24T03:30:52.405Z,12.30
2023-03-24T03:33:26.279Z,12.30
2023-03-24T03:36:08.141Z,12.30
2023-03-24T03:38:45.514Z,12.30
2023-03-24T03:41:15.135Z,12.30
2023-03-24T03:43:44.907Z,12.30
2023-03-24T03:46:34.554Z,12.30
2023-03-24T03:49:08.212Z,12.30
2023-03-24T03:51:42.741Z,12.20
2023-03-24T03:57:33.578Z,12.20
2023-03-24T04:00:38.611Z,12.20
2023-03-24T04:04:20.401Z,12.10
2023-03-24T04:07:19.191Z,12.10
2023-03-24T04:10:08.676Z,12.10
2023-03-24T04:12:55.121Z,12.00
2023-03-24T04:15:46.829Z,12.00
2023-03-24T04:22:06.743Z,11.90
2023-03-24T04:24:43.950Z,11.80
2023-03-24T04:27:27.218Z,11.80
2023-03-24T04:30:07.621Z,11.90
2023-03-24T04:32:43.220Z,11.90
2023-03-24T04:35:15.160Z,11.90
2023-03-24T04:38:05.994Z,11.80
2023-03-24T04:43:40.925Z,11.90
2023-03-24T04:46:11.571Z,11.90
2023-03-24T04:49:24.937Z,12.00
2023-03-24T04:52:14.552Z,12.00
2023-03-24T04:54:49.245Z,12.10
2023-03-24T04:57:19.667Z,12.20
2023-03-24T04:59:54.055Z,12.20
2023-03-24T05:02:34.030Z,12.20
2023-03-24T05:05:39.391Z,12.30
2023-03-24T05:09:12.417Z,12.30
2023-03-24T05:11:56.815Z,12.40
2023-03-24T05:14:27.826Z,12.40
2023-03-24T05:20:50.907Z,12.40
2023-03-24T05:24:15.880Z,12.40
2023-03-24T05:26:50.746Z,12.50
2023-03-24T05:32:53.373Z,12.40
2023-03-24T05:35:25.736Z,12.40
2023-03-24T05:38:56.127Z,12.40
2023-03-24T05:42:12.237Z,12.50
2023-03-24T05:44:51.652Z,12.50
2023-03-24T05:47:33.477Z,12.50
2023-03-24T05:50:01.767Z,12.60
2023-03-24T05:52:57.196Z,12.60
2023-03-24T05:55:48.391Z,12.60
2023-03-24T05:58:45.089Z,12.70
2023-03-24T06:01:13.715Z,12.70
2023-03-24T06:07:07.010Z,12.80
2023-03-24T06:09:56.888Z,12.90
2023-03-24T06:12:25.821Z,12.90
2023-03-24T06:15:17.480Z,12.90
2023-03-24T06:17:47.886Z,12.90
2023-03-24T06:21:02.001Z,13.00
2023-03-24T06:23:46.005Z,13.00
2023-03-24T06:30:06.146Z,14.30
2023-03-24T06:32:36.161Z,14.90
2023-03-24T06:35:31.253Z,15.30
2023-03-24T06:38:50.453Z,15.60
2023-03-24T06:41:46.568Z,16.00
2023-03-24T06:44:17.081Z,15.80
2023-03-24T06:46:47.275Z,15.70
2023-03-24T06:49:16.705Z,15.60
2023-03-24T06:51:44.774Z,15.30
2023-03-24T06:54:14.390Z,15.10
2023-03-24T06:56:44.003Z,15.00
2023-03-24T07:00:00.384Z,14.80
2023-03-24T07:03:19.669Z,14.60
2023-03-24T07:09:21.504Z,14.30
2023-03-24T07:11:49.697Z,14.20
2023-03-24T07:18:43.098Z,14.10
2023-03-24T07:21:12.784Z,14.00
2023-03-24T07:23:42.527Z,13.90
2023-03-24T07:26:18.609Z,13.90
2023-03-24T07:28:50.235Z,13.90
2023-03-24T07:32:04.314Z,13.90
2023-03-24T07:41:22.447Z,13.90
2023-03-24T07:44:03.151Z,13.80
2023-03-24T07:46:55.147Z,13.80
2023-03-24T07:50:16.708Z,13.90
2023-03-24T07:52:50.314Z,13.90
2023-03-24T07:55:36.602Z,13.90
2023-03-24T08:10:24.915Z,13.70
2023-03-24T08:14:11.243Z,13.50
2023-03-24T08:16:46.063Z,13.40
2023-03-24T08:19:22.931Z,13.40
2023-03-24T08:21:55.742Z,13.50
2023-03-24T08:24:58.585Z,13.50
2023-03-24T08:39:26.673Z,13.70
2023-03-24T08:42:05.768Z,14.00
2023-03-24T08:44:34.792Z,14.40
2023-03-24T08:47:16.192Z,14.60
2023-03-24T08:49:55.122Z,14.70
2023-03-24T09:01:10.238Z,14.70
2023-03-24T09:09:18.422Z,14.80
2023-03-24T09:12:04.195Z,14.90
2023-03-24T09:15:08.125Z,15.20
2023-03-24T09:17:49.876Z,15.70
2023-03-24T09:20:26.922Z,16.20
2023-03-24T09:23:36.464Z,16.60
2023-03-24T09:26:34.231Z,17.10
2023-03-24T09:29:12.034Z,17.40
2023-03-24T09:32:06.232Z,17.40
2023-03-24T09:35:02.117Z,17.30
2023-03-24T09:37:30.735Z,17.00
2023-03-24T09:40:00.031Z,17.00
2023-03-24T09:42:30.650Z,16.70
2023-03-24T09:45:05.863Z,16.60
2023-03-24T09:47:40.258Z,16.40
2023-03-24T09:50:17.488Z,16.00
2023-03-24T09:53:54.302Z,15.80
2023-03-24T10:03:35.624Z,16.00
2023-03-24T10:06:23.450Z,16.40
2023-03-24T10:09:38.579Z,16.40
2023-03-24T10:12:50.545Z,16.60
2023-03-24T10:15:44.687Z,16.80
2023-03-24T10:21:20.232Z,17.20
2023-03-24T10:23:56.963Z,17.00
2023-03-24T10:26:37.570Z,16.70
2023-03-24T10:29:25.931Z,16.50
2023-03-24T10:31:58.769Z,16.20
2023-03-24T10:34:30.906Z,15.80
2023-03-24T10:37:02.833Z,15.60
2023-03-24T10:39:44.009Z,15.40
2023-03-24T10:42:18.673Z,15.40
2023-03-24T10:44:48.780Z,15.30
2023-03-24T10:47:27.193Z,15.10
2023-03-24T10:49:58.045Z,14.90
2023-03-24T10:52:28.245Z,14.90
2023-03-24T10:54:58.333Z,14.90
2023-03-24T10:57:27.811Z,14.90
2023-03-24T10:59:59.298Z,14.90
2023-03-24T11:02:30.691Z,14.80
2023-03-24T11:05:02.347Z,14.80
2023-03-24T11:07:35.343Z,14.70
2023-03-24T11:10:08.292Z,14.70
2023-03-24T11:12:38.868Z,14.80
2023-03-24T11:15:22.405Z,14.70
2023-03-24T11:17:56.607Z,14.70
2023-03-24T11:20:29.844Z,14.60
2023-03-24T11:23:02.368Z,14.50
2023-03-24T11:25:34.175Z,14.50
2023-03-24T11:28:04.679Z,14.40
2023-03-24T11:30:36.750Z,14.40
2023-03-24T11:33:07.187Z,14.50
2023-03-24T11:35:41.787Z,14.40
2023-03-24T11:38:32.005Z,14.40
2023-03-24T11:41:05.021Z,14.40
2023-03-24T11:43:33.480Z,14.40
2023-03-24T11:46:06.200Z,14.40
2023-03-24T11:48:41.711Z,14.20
2023-03-24T11:51:12.641Z,14.10
2023-03-24T11:53:47.633Z,14.10
2023-03-24T11:56:27.126Z,14.00
2023-03-24T11:59:04.788Z,13.90
2023-03-24T12:01:37.227Z,14.00
2023-03-24T12:04:34.965Z,13.90
2023-03-24T12:07:25.107Z,14.00
2023-03-24T12:10:00.638Z,14.10
2023-03-24T12:12:39.119Z,14.20
2023-03-24T12:15:28.253Z,14.30
2023-03-24T12:18:08.746Z,14.30
2023-03-24T12:20:41.489Z,14.30
2023-03-24T12:23:14.104Z,14.30
2023-03-24T12:26:10.380Z,14.20
2023-03-24T12:28:52.701Z,14.10
2023-03-24T12:31:46.574Z,14.10
2023-03-24T12:34:37.966Z,14.10
2023-03-24T12:37:11.111Z,14.00
2023-03-24T12:39:49.182Z,14.00
2023-03-24T12:42:21.021Z,14.00
2023-03-24T12:45:14.133Z,14.00
2023-03-24T12:47:59.167Z,14.00
2023-03-24T12:50:39.384Z,14.10
2023-03-24T12:53:16.497Z,14.20
2023-03-24T12:55:48.698Z,14.40
2023-03-24T12:58:25.053Z,14.50
2023-03-24T13:01:02.200Z,14.70
2023-03-24T13:03:35.212Z,14.80
2023-03-24T13:06:17.285Z,14.90
2023-03-24T13:08:53.841Z,15.00
2023-03-24T13:11:33.171Z,15.00
2023-03-24T13:14:10.998Z,15.10
2023-03-24T13:16:40.805Z,15.20
2023-03-24T13:19:18.905Z,15.20
2023-03-24T13:21:48.901Z,15.30
2023-03-24T13:24:19.256Z,15.30
2023-03-24T13:26:56.821Z,15.20
2023-03-24T13:29:48.410Z,15.20
2023-03-24T13:32:26.724Z,15.30
2023-03-24T13:34:59.276Z,15.30
2023-03-24T13:37:33.465Z,15.10
2023-03-24T13:40:04.830Z,14.90
2023-03-24T13:42:34.788Z,14.60
2023-03-24T13:45:07.916Z,14.40
2023-03-24T13:47:57.670Z,14.10
2023-03-24T13:50:26.141Z,13.60
2023-03-24T13:52:54.557Z,12.90
2023-03-24T13:55:25.655Z,12.50
2023-03-24T13:57:58.147Z,12.10
2023-03-24T14:00:28.880Z,11.70
2023-03-24T14:02:59.432Z,11.50
2023-03-24T14:05:33.350Z,11.30
2023-03-24T14:08:13.802Z,11.10
2023-03-24T14:10:44.771Z,10.90
2023-03-24T14:13:24.630Z,10.80
2023-03-24T14:15:56.431Z,10.70
2023-03-24T14:18:43.134Z,10.60
2023-03-24T14:21:11.736Z,10.60
2023-03-24T14:23:42.156Z,10.60
2023-03-24T14:26:14.388Z,10.50
2023-03-24T14:28:43.640Z,10.50
2023-03-24T14:31:24.525Z,10.50
2023-03-24T14:34:10.983Z,10.40
2023-03-24T14:36:41.382Z,10.50
2023-03-24T14:39:21.162Z,10.50
2023-03-24T14:41:52.004Z,10.40
2023-03-24T14:44:59.114Z,10.50
2023-03-24T14:47:32.369Z,10.50
2023-03-24T14:50:03.847Z,10.60
2023-03-24T14:52:37.969Z,10.70
2023-03-24T14:55:12.348Z,10.80
2023-03-24T14:57:42.366Z,10.70
2023-03-24T15:00:18.925Z,10.70
2023-03-24T15:02:51.227Z,10.70
2023-03-24T15:05:23.529Z,10.80
2023-03-24T15:08:04.119Z,10.80
2023-03-24T15:10:40.605Z,10.70
2023-03-24T15:13:36.044Z,10.70
2023-03-24T15:16:07.672Z,10.70
2023-03-24T15:18:40.359Z,10.70
2023-03-24T15:21:17.174Z,10.70
2023-03-24T15:23:48.843Z,10.70
2023-03-24T15:26:19.845Z,10.80
2023-03-24T15:28:47.968Z,10.80
2023-03-24T15:31:16.494Z,10.80
2023-03-24T15:33:47.021Z,10.80
2023-03-24T15:36:18.861Z,10.90
2023-03-24T15:38:49.911Z,11.00
2023-03-24T15:41:21.496Z,11.00
2023-03-24T15:43:52.927Z,11.10
2023-03-24T15:46:27.711Z,11.10
2023-03-24T15:48:59.125Z,11.20
2023-03-24T15:51:49.881Z,11.20
2023-03-24T15:54:22.992Z,11.20
2023-03-24T15:57:02.455Z,11.20
2023-03-24T15:59:37.730Z,11.10
2023-03-24T16:02:13.490Z,11.00
2023-03-24T16:04:43.130Z,11.00
2023-03-24T16:07:29.486Z,11.00
2023-03-24T16:10:03.857Z,11.00
2023-03-24T16:12:33.241Z,11.00
2023-03-24T16:15:01.642Z,11.00
2023-03-24T16:17:29.756Z,11.00
2023-03-24T16:20:00.250Z,11.00
2023-03-24T16:22:28.691Z,11.00
2023-03-24T16:24:56.692Z,11.00
2023-03-24T16:27:24.783Z,11.00
2023-03-24T16:29:52.827Z,11.00
2023-03-24T16:32:21.272Z,11.00
2023-03-24T16:34:49.283Z,11.00
2023-03-24T16:37:18.730Z,10.90
2023-03-24T16:39:46.743Z,10.90
2023-03-24T16:42:15.026Z,10.80
2023-03-24T16:44:43.015Z,10.70
2023-03-24T16:47:11.981Z,10.60
2023-03-24T16:49:39.968Z,10.60
2023-03-24T16:52:12.880Z,10.50
2023-03-24T16:54:42.512Z,10.50
2023-03-24T16:57:10.588Z,10.40
2023-03-24T16:59:38.650Z,10.40
2023-03-24T17:02:09.495Z,10.30
2023-03-24T17:04:37.534Z,10.30
2023-03-24T17:07:06.226Z,10.20
2023-03-24T17:09:35.253Z,10.20
2023-03-24T17:12:04.914Z,10.10
2023-03-24T17:14:32.967Z,10.10
2023-03-24T17:17:02.834Z,10.00
2023-03-24T17:19:31.389Z,10.00
2023-03-24T17:22:02.189Z,10.00
2023-03-24T17:24:30.823Z,10.00
2023-03-24T17:26:58.969Z,9.90
2023-03-24T17:29:28.405Z,9.90
2023-03-24T17:31:56.680Z,9.90
2023-03-24T17:34:24.732Z,9.80
2023-03-24T17:36:53.885Z,9.80
2023-03-24T17:39:22.613Z,9.80
2023-03-24T17:41:51.035Z,9.80
2023-03-24T17:44:19.198Z,9.80
2023-03-24T17:46:48.669Z,9.70
2023-03-24T17:49:16.731Z,9.70
2023-03-24T17:51:44.903Z,9.60
2023-03-24T17:54:13.771Z,9.60
2023-03-24T17:56:42.037Z,9.60
2023-03-24T17:59:10.097Z,9.60
2023-03-24T18:01:39.287Z,9.50
2023-03-24T18:04:09.302Z,9.50
2023-03-24T18:06:38.618Z,9.40
2023-03-24T18:09:07.397Z,9.40
2023-03-24T18:11:35.900Z,9.40
2023-03-24T18:14:03.979Z,9.40
2023-03-24T18:16:35.028Z,9.30
2023-03-24T18:19:03.870Z,9.40
2023-03-24T18:21:33.708Z,9.30
2023-03-24T18:24:01.983Z,9.30
2023-03-24T18:26:29.975Z,9.30
2023-03-24T18:28:57.977Z,9.30
2023-03-24T18:31:27.167Z,9.20
2023-03-24T18:33:56.266Z,9.10
2023-03-24T18:36:27.169Z,9.10
2023-03-24T18:39:01.340Z,9.10
2023-03-24T18:41:30.506Z,9.00
2023-03-24T18:44:00.411Z,9.00
2023-03-24T18:46:29.200Z,8.90
2023-03-24T18:48:57.414Z,8.90
2023-03-24T18:51:27.112Z,8.90
2023-03-24T18:53:55.699Z,8.90
2023-03-24T18:56:25.517Z,8.90
2023-03-24T18:58:53.667Z,8.80
2023-03-24T19:01:23.481Z,8.90
2023-03-24T19:03:53.299Z,8.90
2023-03-24T19:06:21.581Z,8.80
2023-03-24T19:08:52.422Z,8.80
2023-03-24T19:11:20.929Z,8.80
2023-03-24T19:13:51.880Z,8.80
2023-03-24T19:16:21.286Z,8.80
2023-03-24T19:18:50.542Z,8.80
2023-03-24T19:21:22.974Z,8.70
2023-03-24T19:23:53.105Z,8.70
2023-03-24T19:26:21.428Z,8.70
2023-03-24T19:28:51.109Z,8.70
2023-03-24T19:31:20.593Z,8.70
2023-03-24T19:33:51.535Z,8.70
2023-03-24T19:36:19.863Z,8.70
2023-03-24T19:38:48.033Z,8.70
2023-03-24T19:41:16.941Z,8.70
2023-03-24T19:43:44.963Z,8.70
2023-03-24T19:46:16.240Z,8.70
2023-03-24T19:48:44.362Z,8.70
2023-03-24T19:51:12.478Z,8.70
2023-03-24T19:53:41.032Z,8.70
2023-03-24T19:56:09.728Z,8.70
2023-03-24T19:58:37.731Z,8.70
2023-03-24T20:01:06.138Z,8.70
2023-03-24T20:03:36.612Z,8.70
2023-03-24T20:06:08.034Z,8.80
2023-03-24T20:08:36.322Z,8.80
2023-03-24T20:11:08.136Z,8.80
2023-03-24T20:13:36.248Z,8.80
2023-03-24T20:16:04.530Z,8.80
2023-03-24T20:18:33.544Z,8.80
2023-03-24T20:21:03.722Z,8.80
2023-03-24T20:23:31.759Z,8.80
2023-03-24T20:26:01.012Z,8.80
2023-03-24T20:28:29.301Z,8.80
2023-03-24T20:31:00.477Z,8.80
2023-03-24T20:33:30.433Z,8.80
2023-03-24T20:35:59.361Z,8.80
2023-03-24T20:38:28.906Z,8.80
2023-03-24T20:41:01.117Z,8.80
2023-03-24T20:43:29.870Z,8.80
2023-03-24T20:45:58.684Z,8.80
2023-03-24T20:48:26.920Z,8.80
2023-03-24T20:50:55.209Z,8.80
2023-03-24T20:53:24.877Z,8.70
2023-03-24T20:56:01.429Z,8.70
2023-03-24T20:58:30.768Z,8.80
2023-03-24T21:00:58.843Z,8.80
2023-03-24T21:03:27.790Z,8.80
2023-03-24T21:05:55.857Z,8.80
2023-03-24T21:08:24.060Z,8.80
2023-03-24T21:10:57.113Z,8.70
2023-03-24T21:13:37.072Z,8.70
2023-03-24T21:16:08.357Z,8.70
2023-03-24T21:18:37.618Z,8.60
2023-03-24T21:21:06.936Z,8.60
2023-03-24T21:23:39.055Z,8.60
2023-03-24T21:26:10.044Z,8.60
2023-03-24T21:28:41.026Z,8.60
2023-03-24T21:31:11.456Z,8.60
2023-03-24T21:33:40.965Z,8.60
2023-03-24T21:36:10.805Z,8.60
2023-03-24T21:38:39.132Z,8.60
2023-03-24T21:41:08.166Z,8.60
2023-03-24T21:43:36.860Z,8.60
2023-03-24T21:46:06.769Z,8.60
2023-03-24T21:48:40.116Z,8.70
2023-03-24T21:51:08.230Z,8.70
2023-03-24T21:53:36.246Z,8.70
2023-03-24T21:56:05.357Z,8.60
2023-03-24T21:58:34.810Z,8.60
2023-03-24T22:01:03.119Z,8.60
2023-03-24T22:03:34.486Z,8.60
2023-03-24T22:06:02.740Z,8.60
2023-03-24T22:08:30.923Z,8.60
2023-03-24T22:11:00.182Z,8.60
2023-03-24T22:13:29.100Z,8.50
2023-03-24T22:15:59.301Z,8.60
2023-03-24T22:18:29.188Z,8.60
2023-03-24T22:21:03.165Z,8.60
2023-03-24T22:23:33.479Z,8.60
2023-03-24T22:26:03.984Z,8.60
2023-03-24T22:28:33.763Z,8.60
2023-03-24T22:31:02.272Z,8.60
2023-03-24T22:33:30.947Z,8.60
2023-03-24T22:36:01.425Z,8.60
2023-03-24T22:38:30.285Z,8.60
2023-03-24T22:40:58.824Z,8.60
2023-03-24T22:43:27.589Z,8.60
2023-03-24T22:45:56.158Z,8.60
2023-03-24T22:48:24.999Z,8.60
2023-03-24T22:50:54.701Z,8.60
2023-03-24T22:53:24.339Z,8.60
2023-03-24T22:55:52.698Z,8.60
2023-03-24T22:58:22.355Z,8.60
2023-03-24T23:00:51.626Z,8.60
2023-03-24T23:03:19.873Z,8.60
2023-03-24T23:05:50.713Z,8.60
2023-03-24T23:08:19.355Z,8.50
2023-03-24T23:10:49.178Z,8.60
2023-03-24T23:13:17.767Z,8.60
2023-03-24T23:15:49.285Z,8.60
2023-03-24T23:18:17.808Z,8.60
2023-03-24T23:20:46.228Z,8.60
2023-03-24T23:23:15.334Z,8.50
2023-03-24T23:25:45.745Z,8.50
2023-03-24T23:28:15.416Z,8.50
2023-03-24T23:30:43.407Z,8.50
2023-03-24T23:33:14.965Z,8.50
2023-03-24T23:35:43.194Z,8.50
2023-03-24T23:38:11.390Z,8.50
2023-03-24T23:40:39.786Z,8.50
2023-03-24T23:43:07.839Z,8.50
2023-03-24T23:45:37.242Z,8.50
2023-03-24T23:48:06.505Z,8.40
2023-03-24T23:50:34.815Z,8.40
2023-03-24T23:53:02.848Z,8.40
2023-03-24T23:55:31.987Z,8.40
2023-03-24T23:58:00.179Z,8.40
